createdAt,value
2016-10-24T00:00:48.059Z,75.38
2016-10-24T00:01:48.076Z,75.47
2016-10-24T00:02:48.095Z,75.38
2016-10-24T00:03:48.104Z,75.47
2016-10-24T00:04:48.173Z,75.38
2016-10-24T00:05:48.135Z,75.57
2016-10-24T00:06:48.157Z,75.57
2016-10-24T00:07:48.172Z,75.38
2016-10-24T00:08:48.185Z,75.38
2016-10-24T00:09:48.198Z,75.38
2016-10-24T00:10:48.217Z,75.38
2016-10-24T00:11:48.236Z,74.99
2016-10-24T00:12:48.247Z,75.38
2016-10-24T00:13:48.264Z,74.8
2016-10-24T00:14:48.308Z,74.9
2016-10-24T00:15:48.293Z,75.57
2016-10-24T00:16:48.313Z,75.47
2016-10-24T00:17:48.326Z,75.57
2016-10-24T00:18:48.341Z,75.09
2016-10-24T00:19:48.361Z,75.57
2016-10-24T00:20:48.515Z,75.57
2016-10-24T00:21:48.513Z,75.57
2016-10-24T00:22:48.517Z,75.38
2016-10-24T00:23:48.533Z,75.28
2016-10-24T00:24:48.524Z,75.09
2016-10-24T00:25:48.543Z,75.09
2016-10-24T00:26:48.583Z,75.38
2016-10-24T00:27:48.570Z,75.38
2016-10-24T00:28:48.733Z,75.57
2016-10-24T00:29:48.709Z,75.38
2016-10-24T00:30:48.753Z,75.09
2016-10-24T00:31:48.751Z,75.19
2016-10-24T00:32:48.666Z,75.47
2016-10-24T00:33:48.675Z,75.28
2016-10-24T00:34:48.917Z,75.38
2016-10-24T00:35:48.732Z,75.57
2016-10-24T00:36:48.740Z,75.67
2016-10-24T00:37:48.747Z,75.57
2016-10-24T00:38:48.797Z,75.38
2016-10-24T00:39:48.914Z,75.47
2016-10-24T00:40:48.804Z,75.28
2016-10-24T00:41:48.824Z,74.9
2016-10-24T00:42:48.825Z,75.38
2016-10-24T00:43:48.835Z,75.19
2016-10-24T00:44:48.955Z,75.47
2016-10-24T00:45:48.872Z,75.19
2016-10-24T00:46:48.897Z,75.67
2016-10-24T00:47:48.908Z,75.47
2016-10-24T00:48:48.911Z,75.47
2016-10-24T00:49:48.941Z,75.28
2016-10-24T00:50:48.937Z,75.47
2016-10-24T00:51:48.868Z,75.57
2016-10-24T00:52:48.890Z,75.28
2016-10-24T00:53:48.899Z,75.28
2016-10-24T00:54:48.922Z,75.28
2016-10-24T00:55:48.937Z,75.38
2016-10-24T00:56:48.954Z,75.28
2016-10-24T00:57:48.965Z,75.19
2016-10-24T00:58:48.985Z,75.28
2016-10-24T00:59:48.997Z,74.99
2016-10-24T01:00:49.027Z,75.19
2016-10-24T01:01:49.030Z,74.99
2016-10-24T01:02:49.056Z,74.99
2016-10-24T01:03:49.068Z,75.28
2016-10-24T01:04:49.088Z,75.38
2016-10-24T01:05:49.092Z,75.09
2016-10-24T01:06:49.116Z,75.09
2016-10-24T01:07:49.138Z,75.28
2016-10-24T01:08:49.142Z,75.38
2016-10-24T01:09:49.158Z,75.28
2016-10-24T01:10:49.181Z,75.47
2016-10-24T01:11:49.192Z,75.38
2016-10-24T01:12:49.216Z,75.67
2016-10-24T01:13:49.222Z,75.09
2016-10-24T01:14:49.243Z,75.38
2016-10-24T01:15:49.602Z,75.67
2016-10-24T01:16:49.269Z,75.47
2016-10-24T01:17:49.290Z,75.85
2016-10-24T01:18:49.302Z,75.85
2016-10-24T01:19:49.316Z,75.95
2016-10-24T01:20:49.344Z,75.76
2016-10-24T01:21:49.350Z,75.85
2016-10-24T01:22:49.372Z,75.85
2016-10-24T01:23:49.412Z,75.85
2016-10-24T01:24:49.395Z,75.85
2016-10-24T01:25:49.416Z,75.85
2016-10-24T01:26:49.433Z,75.95
2016-10-24T01:27:49.434Z,75.57
2016-10-24T01:28:49.459Z,75.76
2016-10-24T01:29:49.469Z,75.85
2016-10-24T01:30:49.487Z,75.38
2016-10-24T01:31:49.507Z,75.38
2016-10-24T01:32:49.528Z,75.57
2016-10-24T01:33:49.536Z,75.47
2016-10-24T01:34:49.554Z,75.67
2016-10-24T01:35:49.571Z,75.67
2016-10-24T01:36:49.580Z,75.67
2016-10-24T01:37:49.593Z,75.76
2016-10-24T01:38:49.618Z,75.76
2016-10-24T01:39:49.630Z,75.57
2016-10-24T01:40:49.645Z,75.76
2016-10-24T01:41:49.698Z,75.76
2016-10-24T01:42:49.677Z,75.76
2016-10-24T01:43:49.697Z,75.38
2016-10-24T01:44:49.710Z,75.76
2016-10-24T01:45:49.733Z,75.67
2016-10-24T01:46:49.740Z,75.67
2016-10-24T01:47:49.757Z,75.76
2016-10-24T01:48:49.767Z,75.28
2016-10-24T01:49:49.790Z,75.95
2016-10-24T01:50:49.818Z,75.95
2016-10-24T01:51:49.821Z,75.76
2016-10-24T01:52:49.836Z,75.28
2016-10-24T01:53:49.844Z,75.95
2016-10-24T01:54:49.865Z,75.85
2016-10-24T01:55:49.880Z,75.95
2016-10-24T01:56:49.904Z,75.95
2016-10-24T01:57:49.918Z,75.95
2016-10-24T01:58:49.936Z,75.76
2016-10-24T01:59:49.941Z,75.57
2016-10-24T02:00:49.963Z,75.67
2016-10-24T02:01:49.993Z,75.76
2016-10-24T02:02:49.989Z,76.42
2016-10-24T02:03:50.003Z,76.23
2016-10-24T02:04:50.018Z,76.33
2016-10-24T02:05:50.040Z,76.04
2016-10-24T02:06:50.058Z,76.04
2016-10-24T02:07:50.071Z,76.42
2016-10-24T02:08:50.096Z,76.42
2016-10-24T02:09:50.107Z,76.42
2016-10-24T02:10:50.123Z,76.42
2016-10-24T02:11:50.137Z,76.33
2016-10-24T02:12:50.143Z,76.04
2016-10-24T02:13:50.169Z,76.14
2016-10-24T02:14:50.184Z,75.67
2016-10-24T02:15:50.307Z,76.33
2016-10-24T02:16:50.336Z,76.23
2016-10-24T02:17:50.344Z,75.67
2016-10-24T02:18:50.368Z,76.14
2016-10-24T02:19:50.364Z,76.14
2016-10-24T02:20:50.287Z,76.14
2016-10-24T02:21:50.418Z,76.33
2016-10-24T02:22:50.313Z,76.33
2016-10-24T02:23:50.448Z,75.57
2016-10-24T02:24:50.453Z,76.04
2016-10-24T02:25:50.456Z,76.14
2016-10-24T02:26:50.473Z,76.23
2016-10-24T02:27:50.472Z,75.76
2016-10-24T02:28:50.509Z,76.14
2016-10-24T02:29:50.506Z,76.23
2016-10-24T02:30:50.518Z,76.33
2016-10-24T02:31:50.533Z,76.14
2016-10-24T02:32:50.577Z,76.14
2016-10-24T02:33:50.578Z,76.14
2016-10-24T02:34:50.587Z,76.04
2016-10-24T02:35:50.593Z,76.33
2016-10-24T02:36:50.599Z,76.33
2016-10-24T02:37:50.542Z,75.95
2016-10-24T02:38:50.627Z,75.85
2016-10-24T02:39:50.620Z,76.04
2016-10-24T02:40:50.628Z,75.85
2016-10-24T02:41:50.644Z,75.95
2016-10-24T02:42:50.655Z,76.14
2016-10-24T02:43:50.650Z,76.23
2016-10-24T02:44:50.655Z,75.95
2016-10-24T02:45:50.668Z,76.42
2016-10-24T02:46:50.689Z,75.85
2016-10-24T02:47:50.710Z,75.95
2016-10-24T02:48:50.723Z,75.76
2016-10-24T02:49:50.736Z,75.95
2016-10-24T02:50:50.751Z,76.04
2016-10-24T02:51:50.771Z,76.14
2016-10-24T02:52:50.779Z,76.14
2016-10-24T02:53:50.804Z,75.85
2016-10-24T02:54:50.823Z,76.14
2016-10-24T02:55:50.828Z,76.14
2016-10-24T02:56:50.844Z,76.14
2016-10-24T02:57:50.860Z,75.85
2016-10-24T02:58:50.878Z,75.95
2016-10-24T02:59:50.900Z,76.04
2016-10-24T03:00:50.912Z,76.61
2016-10-24T03:01:50.923Z,76.23
2016-10-24T03:02:50.936Z,76.61
2016-10-24T03:03:50.951Z,76.52
2016-10-24T03:04:51.002Z,76.14
2016-10-24T03:05:51.020Z,76.71
2016-10-24T03:06:51.005Z,76.42
2016-10-24T03:07:51.017Z,76.52
2016-10-24T03:08:51.401Z,76.71
2016-10-24T03:09:51.065Z,76.81
2016-10-24T03:10:51.065Z,76.9
2016-10-24T03:11:51.206Z,76.71
2016-10-24T03:12:51.210Z,76.42
2016-10-24T03:13:51.239Z,76.42
2016-10-24T03:14:51.127Z,76.52
2016-10-24T03:15:51.258Z,76.9
2016-10-24T03:16:51.265Z,76.9
2016-10-24T03:17:51.273Z,76.52
2016-10-24T03:18:51.291Z,76.81
2016-10-24T03:19:51.316Z,76.52
2016-10-24T03:20:51.350Z,76.52
2016-10-24T03:21:51.360Z,76.33
2016-10-24T03:22:51.254Z,77
2016-10-24T03:23:51.376Z,76.61
2016-10-24T03:24:51.375Z,76.71
2016-10-24T03:25:51.421Z,75.95
2016-10-24T03:26:51.419Z,76.71
2016-10-24T03:27:51.434Z,76.33
2016-10-24T03:28:51.438Z,76.52
2016-10-24T03:29:51.441Z,76.71
2016-10-24T03:30:51.444Z,76.81
2016-10-24T03:31:51.399Z,75.95
2016-10-24T03:32:51.502Z,76.71
2016-10-24T03:33:51.502Z,76.33
2016-10-24T03:34:51.519Z,76.23
2016-10-24T03:35:51.517Z,76.71
2016-10-24T03:36:51.532Z,76.81
2016-10-24T03:37:51.492Z,76.71
2016-10-24T03:38:51.511Z,76.04
2016-10-24T03:39:51.531Z,76.81
2016-10-24T03:40:51.542Z,76.52
2016-10-24T03:41:51.559Z,76.52
2016-10-24T03:42:51.571Z,75.85
2016-10-24T03:43:51.592Z,76.52
2016-10-24T03:44:51.601Z,76.42
2016-10-24T03:45:51.628Z,76.52
2016-10-24T03:46:51.646Z,76.81
2016-10-24T03:47:51.657Z,76.71
2016-10-24T03:48:51.676Z,76.9
2016-10-24T03:49:51.681Z,75.95
2016-10-24T03:50:51.698Z,75.95
2016-10-24T03:51:51.715Z,76.61
2016-10-24T03:52:51.736Z,77
2016-10-24T03:53:51.737Z,76.81
2016-10-24T03:54:51.761Z,76.9
2016-10-24T03:55:52.086Z,77.19
2016-10-24T03:56:51.802Z,76.61
2016-10-24T03:57:51.810Z,76.81
2016-10-24T03:58:51.824Z,77.09
2016-10-24T03:59:52.041Z,76.04
2016-10-24T04:00:51.855Z,76.81
2016-10-24T04:01:51.878Z,77
2016-10-24T04:02:51.885Z,76.71
2016-10-24T04:03:51.910Z,75.76
2016-10-24T04:04:51.922Z,76.14
2016-10-24T04:05:51.928Z,77.09
2016-10-24T04:06:51.945Z,76.71
2016-10-24T04:07:51.968Z,76.42
2016-10-24T04:08:51.988Z,76.52
2016-10-24T04:09:52.002Z,76.81
2016-10-24T04:10:52.014Z,76.9
2016-10-24T04:11:52.036Z,76.81
2016-10-24T04:12:52.043Z,76.81
2016-10-24T04:13:52.258Z,75.76
2016-10-24T04:14:52.075Z,76.52
2016-10-24T04:15:52.087Z,76.81
2016-10-24T04:16:52.112Z,76.61
2016-10-24T04:17:52.326Z,76.81
2016-10-24T04:18:52.140Z,76.81
2016-10-24T04:19:52.152Z,76.71
2016-10-24T04:20:52.179Z,76.81
2016-10-24T04:21:52.184Z,75.95
2016-10-24T04:22:52.436Z,77
2016-10-24T04:23:52.216Z,75.85
2016-10-24T04:24:52.422Z,77.19
2016-10-24T04:25:52.418Z,76.33
2016-10-24T04:26:52.326Z,76.52
2016-10-24T04:27:52.277Z,76.52
2016-10-24T04:28:52.307Z,77
2016-10-24T04:29:52.317Z,76.9
2016-10-24T04:30:52.330Z,76.42
2016-10-24T04:31:52.346Z,76.42
2016-10-24T04:32:52.356Z,76.42
2016-10-24T04:33:52.384Z,75.76
2016-10-24T04:34:52.388Z,76.52
2016-10-24T04:35:52.407Z,75.95
2016-10-24T04:36:52.569Z,76.81
2016-10-24T04:37:52.435Z,77
2016-10-24T04:38:52.456Z,76.42
2016-10-24T04:39:52.483Z,76.52
2016-10-24T04:40:52.495Z,76.42
2016-10-24T04:41:52.500Z,76.42
2016-10-24T04:42:52.514Z,76.61
2016-10-24T04:43:52.581Z,77.19
2016-10-24T04:44:52.667Z,77
2016-10-24T04:45:52.564Z,76.52
2016-10-24T04:46:52.587Z,76.9
2016-10-24T04:47:52.599Z,76.81
2016-10-24T04:48:52.615Z,76.9
2016-10-24T04:49:52.743Z,77
2016-10-24T04:50:52.645Z,76.9
2016-10-24T04:51:52.680Z,76.71
2016-10-24T04:52:52.677Z,77.09
2016-10-24T04:53:52.688Z,76.9
2016-10-24T04:54:52.699Z,77
2016-10-24T04:55:52.719Z,76.71
2016-10-24T04:56:52.743Z,76.71
2016-10-24T04:57:52.747Z,77
2016-10-24T04:58:52.768Z,76.61
2016-10-24T04:59:52.782Z,76.71
2016-10-24T05:00:52.799Z,77.28
2016-10-24T05:01:52.813Z,77.37
2016-10-24T05:02:52.831Z,77.19
2016-10-24T05:03:52.846Z,77.37
2016-10-24T05:04:52.862Z,77.19
2016-10-24T05:05:52.880Z,77.47
2016-10-24T05:06:52.886Z,77.19
2016-10-24T05:07:52.910Z,76.52
2016-10-24T05:08:52.924Z,76.61
2016-10-24T05:09:52.955Z,77
2016-10-24T05:10:52.961Z,76.71
2016-10-24T05:11:52.968Z,76.52
2016-10-24T05:12:53.020Z,77.37
2016-10-24T05:13:53.000Z,76.71
2016-10-24T05:14:53.016Z,77.09
2016-10-24T05:15:53.037Z,77.19
2016-10-24T05:16:53.124Z,77
2016-10-24T05:17:53.065Z,77
2016-10-24T05:18:53.089Z,77.37
2016-10-24T05:19:53.092Z,77.09
2016-10-24T05:20:53.109Z,76.71
2016-10-24T05:21:53.126Z,77
2016-10-24T05:22:53.142Z,76.9
2016-10-24T05:23:53.172Z,77
2016-10-24T05:24:53.170Z,77.19
2016-10-24T05:25:53.186Z,76.81
2016-10-24T05:26:53.200Z,76.81
2016-10-24T05:27:53.238Z,77.09
2016-10-24T05:28:53.246Z,77
2016-10-24T05:29:53.255Z,76.9
2016-10-24T05:30:53.268Z,77.09
2016-10-24T05:31:53.283Z,77
2016-10-24T05:32:53.300Z,77.09
2016-10-24T05:33:53.437Z,77.37
2016-10-24T05:34:53.525Z,77
2016-10-24T05:35:53.487Z,77.19
2016-10-24T05:36:53.487Z,77
2016-10-24T05:37:53.492Z,76.9
2016-10-24T05:38:53.505Z,77.28
2016-10-24T05:39:53.513Z,77
2016-10-24T05:40:53.526Z,76.9
2016-10-24T05:41:53.495Z,76.81
2016-10-24T05:42:53.503Z,77.37
2016-10-24T05:43:53.474Z,77.37
2016-10-24T05:44:53.491Z,76.42
2016-10-24T05:45:53.507Z,77.09
2016-10-24T05:46:53.517Z,77.47
2016-10-24T05:47:53.536Z,77.19
2016-10-24T05:48:53.553Z,77
2016-10-24T05:49:53.571Z,77.09
2016-10-24T05:50:53.581Z,77.09
2016-10-24T05:51:53.618Z,77.19
2016-10-24T05:52:53.618Z,77
2016-10-24T05:53:53.635Z,76.9
2016-10-24T05:54:53.650Z,76.81
2016-10-24T05:55:53.769Z,77.09
2016-10-24T05:56:53.674Z,77.19
2016-10-24T05:57:53.696Z,77
2016-10-24T05:58:53.709Z,76.9
2016-10-24T05:59:53.719Z,77
2016-10-24T06:00:53.855Z,76.9
2016-10-24T06:01:54.069Z,77.19
2016-10-24T06:02:53.780Z,76.9
2016-10-24T06:03:53.795Z,77.28
2016-10-24T06:04:53.916Z,77.28
2016-10-24T06:05:53.821Z,77.47
2016-10-24T06:06:53.841Z,77.85
2016-10-24T06:07:53.861Z,77.09
2016-10-24T06:08:53.863Z,77.09
2016-10-24T06:09:53.876Z,77.19
2016-10-24T06:10:53.903Z,77.09
2016-10-24T06:11:53.916Z,77.28
2016-10-24T06:12:53.926Z,77.28
2016-10-24T06:13:53.945Z,77.37
2016-10-24T06:14:53.955Z,77.28
2016-10-24T06:15:53.981Z,77.28
2016-10-24T06:16:53.987Z,77.56
2016-10-24T06:17:54.015Z,77.56
2016-10-24T06:18:54.021Z,77.28
2016-10-24T06:19:54.037Z,77.37
2016-10-24T06:20:54.052Z,77.37
2016-10-24T06:21:54.071Z,77.66
2016-10-24T06:22:54.087Z,77.47
2016-10-24T06:23:54.104Z,77.37
2016-10-24T06:24:54.111Z,77.09
2016-10-24T06:25:54.135Z,77.47
2016-10-24T06:26:54.255Z,77.37
2016-10-24T06:27:54.165Z,77.28
2016-10-24T06:28:54.184Z,77.85
2016-10-24T06:29:54.194Z,77.95
2016-10-24T06:30:54.216Z,77.47
2016-10-24T06:31:54.228Z,77.85
2016-10-24T06:32:54.248Z,77.37
2016-10-24T06:33:54.257Z,77.28
2016-10-24T06:34:54.272Z,77.47
2016-10-24T06:35:54.410Z,77.85
2016-10-24T06:36:54.307Z,77.85
2016-10-24T06:37:54.346Z,77.95
2016-10-24T06:38:54.342Z,77.56
2016-10-24T06:39:54.368Z,77.56
2016-10-24T06:40:54.374Z,77.85
2016-10-24T06:41:54.397Z,77.47
2016-10-24T06:42:54.409Z,77.28
2016-10-24T06:43:54.424Z,77.56
2016-10-24T06:44:54.430Z,77.28
2016-10-24T06:45:54.447Z,77.28
2016-10-24T06:46:54.458Z,77.19
2016-10-24T06:47:54.491Z,77.19
2016-10-24T06:48:54.503Z,77.56
2016-10-24T06:49:54.516Z,77.37
2016-10-24T06:50:54.568Z,77.56
2016-10-24T06:51:54.544Z,77.66
2016-10-24T06:52:54.556Z,77.66
2016-10-24T06:53:54.575Z,77.19
2016-10-24T06:54:54.593Z,77.37
2016-10-24T06:55:54.606Z,77.7
2016-10-24T06:56:54.627Z,77.37
2016-10-24T06:57:54.642Z,77.7
2016-10-24T06:58:54.664Z,77.98
2016-10-24T06:59:54.669Z,77.22
2016-10-24T07:00:54.691Z,77.03
2016-10-24T07:01:54.745Z,77.61
2016-10-24T07:02:54.728Z,77.51
2016-10-24T07:03:54.729Z,77.51
2016-10-24T07:04:54.750Z,77.32
2016-10-24T07:05:54.770Z,77.61
2016-10-24T07:06:54.793Z,77.42
2016-10-24T07:07:54.799Z,77.42
2016-10-24T07:08:54.813Z,77.7
2016-10-24T07:09:54.862Z,78.27
2016-10-24T07:10:54.847Z,77.51
2016-10-24T07:11:54.867Z,77.89
2016-10-24T07:12:55.005Z,77.98
2016-10-24T07:13:54.892Z,77.51
2016-10-24T07:14:54.910Z,78.27
2016-10-24T07:15:54.919Z,77.7
2016-10-24T07:16:54.938Z,77.98
2016-10-24T07:17:54.994Z,77.89
2016-10-24T07:18:54.978Z,77.89
2016-10-24T07:19:55.017Z,77.8
2016-10-24T07:20:55.001Z,77.89
2016-10-24T07:21:55.044Z,77.61
2016-10-24T07:22:55.047Z,77.51
2016-10-24T07:23:55.057Z,77.61
2016-10-24T07:24:55.071Z,77.51
2016-10-24T07:25:55.080Z,77.98
2016-10-24T07:26:55.104Z,77.98
2016-10-24T07:27:55.115Z,77.51
2016-10-24T07:28:55.130Z,77.89
2016-10-24T07:29:55.153Z,78.27
2016-10-24T07:30:55.162Z,77.98
2016-10-24T07:31:55.185Z,77.51
2016-10-24T07:32:55.196Z,77.51
2016-10-24T07:33:55.220Z,77.61
2016-10-24T07:34:55.240Z,77.7
2016-10-24T07:35:55.244Z,77.32
2016-10-24T07:36:55.259Z,77.61
2016-10-24T07:37:55.274Z,77.98
2016-10-24T07:38:55.294Z,77.98
2016-10-24T07:39:55.313Z,77.51
2016-10-24T07:40:55.322Z,77.8
2016-10-24T07:41:55.349Z,78.17
2016-10-24T07:42:55.352Z,77.7
2016-10-24T07:43:55.381Z,77.42
2016-10-24T07:44:55.400Z,78.17
2016-10-24T07:45:55.408Z,77.98
2016-10-24T07:46:55.417Z,77.7
2016-10-24T07:47:55.441Z,77.61
2016-10-24T07:48:55.466Z,77.61
2016-10-24T07:49:55.479Z,77.13
2016-10-24T07:50:55.489Z,77.61
2016-10-24T07:51:55.502Z,77.45
2016-10-24T07:52:55.515Z,77.98
2016-10-24T07:53:55.550Z,77.51
2016-10-24T07:54:55.559Z,77.45
2016-10-24T07:55:55.604Z,77.26
2016-10-24T07:56:55.627Z,77.17
2016-10-24T07:57:55.600Z,77.55
2016-10-24T07:58:55.624Z,78.31
2016-10-24T07:59:55.633Z,78.31
2016-10-24T08:00:55.649Z,77.64
2016-10-24T08:01:55.660Z,77.55
2016-10-24T08:02:55.676Z,77.83
2016-10-24T08:03:55.696Z,77.83
2016-10-24T08:04:55.713Z,77.36
2016-10-24T08:05:55.732Z,77.64
2016-10-24T08:06:55.743Z,77.36
2016-10-24T08:07:55.761Z,77.45
2016-10-24T08:08:55.783Z,77.26
2016-10-24T08:09:55.796Z,77.26
2016-10-24T08:10:55.833Z,77.17
2016-10-24T08:11:55.831Z,77.55
2016-10-24T08:12:55.847Z,77.55
2016-10-24T08:13:55.860Z,77.36
2016-10-24T08:14:55.882Z,77.36
2016-10-24T08:15:55.893Z,77.26
2016-10-24T08:16:55.910Z,77.55
2016-10-24T08:17:55.927Z,77.55
2016-10-24T08:18:55.951Z,78.03
2016-10-24T08:19:55.967Z,77.26
2016-10-24T08:20:55.973Z,77.64
2016-10-24T08:21:55.992Z,77.07
2016-10-24T08:22:56.008Z,78.06
2016-10-24T08:23:56.031Z,77.74
2016-10-24T08:24:56.050Z,77.07
2016-10-24T08:25:56.099Z,77.49
2016-10-24T08:26:56.076Z,77.59
2016-10-24T08:27:56.091Z,77.97
2016-10-24T08:28:56.115Z,77.4
2016-10-24T08:29:56.132Z,77.4
2016-10-24T08:30:56.137Z,77.49
2016-10-24T08:31:56.162Z,77.49
2016-10-24T08:32:56.183Z,77.59
2016-10-24T08:33:56.186Z,77.49
2016-10-24T08:34:56.212Z,77.4
2016-10-24T08:35:56.227Z,77.4
2016-10-24T08:36:56.242Z,77.78
2016-10-24T08:37:56.256Z,77.78
2016-10-24T08:38:56.278Z,77.01
2016-10-24T08:39:56.298Z,77.34
2016-10-24T08:40:56.299Z,77.01
2016-10-24T08:41:56.323Z,77.49
2016-10-24T08:42:56.337Z,77.44
2016-10-24T08:43:56.353Z,76.86
2016-10-24T08:44:56.380Z,77.2
2016-10-24T08:45:56.387Z,77.34
2016-10-24T08:46:56.410Z,76.86
2016-10-24T08:47:56.423Z,76.96
2016-10-24T08:48:56.453Z,76.96
2016-10-24T08:49:56.465Z,77.34
2016-10-24T08:50:56.480Z,77.34
2016-10-24T08:51:56.495Z,77.15
2016-10-24T08:52:56.503Z,77.25
2016-10-24T08:53:56.524Z,75.91
2016-10-24T08:54:56.551Z,76.86
2016-10-24T08:55:56.563Z,76.86
2016-10-24T08:56:56.580Z,76.86
2016-10-24T08:57:56.595Z,76.29
2016-10-24T08:58:56.607Z,76.01
2016-10-24T08:59:56.628Z,76.01
2016-10-24T09:00:56.641Z,76.48
2016-10-24T09:01:56.669Z,76.29
2016-10-24T09:02:56.693Z,76.29
2016-10-24T09:03:56.694Z,76.01
2016-10-24T09:04:56.709Z,75.81
2016-10-24T09:05:56.745Z,75.85
2016-10-24T09:06:56.743Z,75.95
2016-10-24T09:07:56.760Z,75.85
2016-10-24T09:08:56.778Z,75.28
2016-10-24T09:09:56.798Z,75.53
2016-10-24T09:10:56.829Z,76.14
2016-10-24T09:11:56.826Z,76.04
2016-10-24T09:12:56.849Z,76.14
2016-10-24T09:13:56.870Z,76.62
2016-10-24T09:14:56.891Z,76.14
2016-10-24T09:15:56.910Z,75.85
2016-10-24T09:16:56.916Z,76.04
2016-10-24T09:17:56.941Z,75.28
2016-10-24T09:18:56.952Z,75.57
2016-10-24T09:19:56.966Z,75.85
2016-10-24T09:20:56.995Z,75.57
2016-10-24T09:21:57.003Z,75.57
2016-10-24T09:22:57.036Z,74.71
2016-10-24T09:23:57.035Z,74.9
2016-10-24T09:24:57.058Z,74.52
2016-10-24T09:25:57.077Z,74.71
2016-10-24T09:26:57.096Z,74.04
2016-10-24T09:27:57.108Z,74.52
2016-10-24T09:28:57.131Z,74.32
2016-10-24T09:29:57.154Z,74.23
2016-10-24T09:30:57.170Z,74.71
2016-10-24T09:31:57.175Z,74.99
2016-10-24T09:32:57.200Z,74.61
2016-10-24T09:33:57.214Z,74.99
2016-10-24T09:34:57.236Z,75.03
2016-10-24T09:35:57.259Z,74.74
2016-10-24T09:36:57.261Z,75.03
2016-10-24T09:37:57.289Z,74.55
2016-10-24T09:38:57.303Z,74.93
2016-10-24T09:39:57.332Z,74.08
2016-10-24T09:40:57.350Z,74.74
2016-10-24T09:41:57.352Z,74.55
2016-10-24T09:42:57.379Z,74.46
2016-10-24T09:43:57.389Z,74.37
2016-10-24T09:44:57.409Z,74.27
2016-10-24T09:45:57.434Z,74.27
2016-10-24T09:46:57.438Z,74.37
2016-10-24T09:47:57.466Z,74.17
2016-10-24T09:48:57.478Z,74.08
2016-10-24T09:49:57.500Z,74.08
2016-10-24T09:50:57.513Z,74.08
2016-10-24T09:51:57.530Z,74.37
2016-10-24T09:52:57.546Z,74.27
2016-10-24T09:53:57.564Z,74.08
2016-10-24T09:54:57.583Z,73.98
2016-10-24T09:55:57.599Z,73.88
2016-10-24T09:56:57.620Z,74.08
2016-10-24T09:57:57.643Z,73.88
2016-10-24T09:58:57.649Z,73.88
2016-10-24T09:59:57.674Z,73.88
2016-10-24T10:00:57.692Z,73.6
2016-10-24T10:01:57.721Z,73.88
2016-10-24T10:02:57.728Z,73.6
2016-10-24T10:03:57.739Z,73.12
2016-10-24T10:04:57.753Z,73.98
2016-10-24T10:05:57.782Z,74.08
2016-10-24T10:06:57.803Z,73.69
2016-10-24T10:07:57.811Z,73.32
2016-10-24T10:08:57.834Z,73.69
2016-10-24T10:09:57.840Z,73.32
2016-10-24T10:10:57.865Z,73.69
2016-10-24T10:11:57.884Z,73.22
2016-10-24T10:12:57.898Z,73.41
2016-10-24T10:13:57.916Z,73.69
2016-10-24T10:14:57.931Z,73.12
2016-10-24T10:15:57.955Z,73.12
2016-10-24T10:16:58.011Z,73.12
2016-10-24T10:17:57.984Z,73.03
2016-10-24T10:18:58.009Z,73.12
2016-10-24T10:19:58.023Z,73.32
2016-10-24T10:20:58.041Z,73.12
2016-10-24T10:21:58.053Z,73.32
2016-10-24T10:22:58.073Z,73.22
2016-10-24T10:23:58.128Z,72.64
2016-10-24T10:24:58.112Z,72.68
2016-10-24T10:25:58.128Z,72.26
2016-10-24T10:26:58.144Z,72.3
2016-10-24T10:27:58.172Z,72.39
2016-10-24T10:28:58.181Z,71.72
2016-10-24T10:29:58.204Z,71.53
2016-10-24T10:30:58.219Z,72.01
2016-10-24T10:31:58.233Z,71.82
2016-10-24T10:32:58.267Z,71.63
2016-10-24T10:33:58.269Z,71.98
2016-10-24T10:34:58.294Z,71.15
2016-10-24T10:35:58.310Z,71.06
2016-10-24T10:36:58.329Z,71.72
2016-10-24T10:37:58.344Z,71.72
2016-10-24T10:38:58.367Z,71.82
2016-10-24T10:39:58.385Z,71.72
2016-10-24T10:40:58.398Z,71.82
2016-10-24T10:41:58.419Z,71.63
2016-10-24T10:42:58.431Z,71.53
2016-10-24T10:43:58.451Z,71.53
2016-10-24T10:44:58.478Z,71.34
2016-10-24T10:45:58.497Z,71.34
2016-10-24T10:46:58.505Z,70.96
2016-10-24T10:47:58.530Z,71.25
2016-10-24T10:48:58.551Z,70.96
2016-10-24T10:49:58.565Z,70.77
2016-10-24T10:50:58.583Z,70.77
2016-10-24T10:51:58.609Z,71.06
2016-10-24T10:52:58.617Z,71.06
2016-10-24T10:53:58.641Z,70.77
2016-10-24T10:54:58.659Z,71.44
2016-10-24T10:55:58.672Z,71.06
2016-10-24T10:56:58.693Z,70.67
2016-10-24T10:57:58.753Z,70.77
2016-10-24T10:58:58.727Z,70.58
2016-10-24T10:59:58.745Z,70.77
2016-10-24T11:00:58.769Z,70.29
2016-10-24T11:01:58.808Z,70.29
2016-10-24T11:02:58.807Z,70.39
2016-10-24T11:03:58.825Z,70.58
2016-10-24T11:04:58.839Z,70.48
2016-10-24T11:05:58.861Z,69.91
2016-10-24T11:06:58.882Z,69.82
2016-10-24T11:07:58.900Z,69.53
2016-10-24T11:08:58.912Z,69.43
2016-10-24T11:09:58.930Z,70.67
2016-10-24T11:10:58.965Z,69.62
2016-10-24T11:11:58.966Z,69.82
2016-10-24T11:12:59.039Z,70.39
2016-10-24T11:13:59.005Z,70.81
2016-10-24T11:14:59.028Z,70.81
2016-10-24T11:15:59.049Z,70.48
2016-10-24T11:16:59.061Z,71.09
2016-10-24T11:17:59.081Z,70.48
2016-10-24T11:18:59.096Z,70.61
2016-10-24T11:19:59.122Z,70.42
2016-10-24T11:20:59.147Z,69.76
2016-10-24T11:21:59.157Z,69.27
2016-10-24T11:22:59.174Z,69.66
2016-10-24T11:23:59.199Z,69.56
2016-10-24T11:24:59.220Z,68.7
2016-10-24T11:25:59.231Z,68.8
2016-10-24T11:26:59.258Z,68.51
2016-10-24T11:27:59.265Z,68.8
2016-10-24T11:28:59.293Z,68.7
2016-10-24T11:29:59.345Z,68.9
2016-10-24T11:30:59.323Z,68.7
2016-10-24T11:31:59.343Z,68.8
2016-10-24T11:32:59.360Z,68.8
2016-10-24T11:33:59.379Z,68.61
2016-10-24T11:34:59.399Z,68.8
2016-10-24T11:35:59.413Z,69.27
2016-10-24T11:36:59.432Z,69.09
2016-10-24T11:37:59.570Z,68.99
2016-10-24T11:38:59.570Z,68.99
2016-10-24T11:39:59.606Z,69.18
2016-10-24T11:40:59.615Z,68.32
2016-10-24T11:41:59.625Z,68.32
2016-10-24T11:42:59.624Z,69.09
2016-10-24T11:43:59.633Z,69.27
2016-10-24T11:44:59.646Z,68.7
2016-10-24T11:45:59.651Z,68.51
2016-10-24T11:46:59.663Z,68.32
2016-10-24T11:47:59.657Z,68.23
2016-10-24T11:48:59.666Z,68.23
2016-10-24T11:49:59.690Z,68.41
2016-10-24T11:50:59.746Z,68.32
2016-10-24T11:51:59.741Z,68.9
2016-10-24T11:52:59.750Z,68.04
2016-10-24T11:53:59.761Z,68.32
2016-10-24T11:54:59.890Z,68.8
2016-10-24T11:55:59.892Z,69.18
2016-10-24T11:56:59.890Z,68.7
2016-10-24T11:57:59.898Z,68.51
2016-10-24T11:58:59.938Z,68.8
2016-10-24T11:59:59.952Z,68.9
2016-10-24T12:00:59.954Z,68.7
2016-10-24T12:01:59.959Z,68.61
2016-10-24T12:02:59.965Z,68.32
2016-10-24T12:03:59.940Z,68.32
2016-10-24T12:04:59.971Z,68.32
2016-10-24T12:06:00.047Z,68.32
2016-10-24T12:06:59.995Z,68.41
2016-10-24T12:08:00.018Z,68.23
2016-10-24T12:09:00.037Z,68.61
2016-10-24T12:10:00.057Z,68.7
2016-10-24T12:11:00.080Z,68.9
2016-10-24T12:12:00.088Z,68.41
2016-10-24T12:13:00.119Z,68.7
2016-10-24T12:14:00.133Z,68.41
2016-10-24T12:15:00.159Z,68.9
2016-10-24T12:16:00.171Z,68.9
2016-10-24T12:17:00.183Z,68.7
2016-10-24T12:18:00.221Z,68.8
2016-10-24T12:19:00.223Z,68.61
2016-10-24T12:20:00.243Z,68.7
2016-10-24T12:21:00.274Z,68.99
2016-10-24T12:22:00.278Z,68.51
2016-10-24T12:23:00.301Z,68.32
2016-10-24T12:24:00.318Z,68.51
2016-10-24T12:25:00.345Z,68.61
2016-10-24T12:26:00.373Z,68.9
2016-10-24T12:27:00.374Z,69.09
2016-10-24T12:28:00.399Z,68.8
2016-10-24T12:29:00.533Z,68.51
2016-10-24T12:30:00.548Z,68.9
2016-10-24T12:31:00.550Z,69.18
2016-10-24T12:32:00.586Z,68.99
2016-10-24T12:33:00.898Z,68.99
2016-10-24T12:34:00.902Z,69.27
2016-10-24T12:35:00.608Z,69.09
2016-10-24T12:36:00.613Z,68.51
2016-10-24T12:37:00.621Z,68.41
2016-10-24T12:38:00.603Z,68.61
2016-10-24T12:39:00.607Z,68.99
2016-10-24T12:40:00.957Z,69.56
2016-10-24T12:41:00.634Z,69.56
2016-10-24T12:42:00.688Z,68.51
2016-10-24T12:43:00.694Z,69.37
2016-10-24T12:44:00.703Z,69.66
2016-10-24T12:45:00.710Z,69.85
2016-10-24T12:46:00.824Z,69.37
2016-10-24T12:47:00.834Z,69.95
2016-10-24T12:48:00.848Z,69.76
2016-10-24T12:49:00.878Z,69.66
2016-10-24T12:50:00.884Z,69.56
2016-10-24T12:51:00.896Z,69.18
2016-10-24T12:52:00.903Z,69.37
2016-10-24T12:53:00.904Z,70.01
2016-10-24T12:54:00.886Z,69.62
2016-10-24T12:55:00.902Z,69.91
2016-10-24T12:56:00.929Z,70.01
2016-10-24T12:57:00.940Z,69.15
2016-10-24T12:58:00.967Z,69.82